createdAt,value
2023-03-06T00:01:51.960Z,2.45
2023-03-06T00:04:39.631Z,2.63
2023-03-06T00:07:27.369Z,2.47
2023-03-06T00:10:20.826Z,3.17
2023-03-06T00:13:12.369Z,3.38
2023-03-06T00:16:03.652Z,2.75
2023-03-06T00:18:51.604Z,2.83
2023-03-06T00:21:41.468Z,2.58
2023-03-06T00:24:29.302Z,2.70
2023-03-06T00:27:16.797Z,2.95
2023-03-06T00:30:04.999Z,2.70
2023-03-06T00:32:54.634Z,2.45
2023-03-06T00:35:43.890Z,3.42
2023-03-06T00:38:35.669Z,2.88
2023-03-06T00:41:23.469Z,2.92
2023-03-06T00:44:11.055Z,2.67
2023-03-06T00:46:58.748Z,3.38
2023-03-06T00:49:46.576Z,3.78
2023-03-06T00:52:34.257Z,3.80
2023-03-06T00:55:22.592Z,3.47
2023-03-06T00:58:10.327Z,4.68
2023-03-06T01:00:58.039Z,4.82
2023-03-06T01:03:45.890Z,3.17
2023-03-06T01:06:34.650Z,3.47
2023-03-06T01:09:24.593Z,3.38
2023-03-06T01:12:14.469Z,3.30
2023-03-06T01:15:02.375Z,3.15
2023-03-06T01:17:53.622Z,2.92
2023-03-06T01:20:41.299Z,3.63
2023-03-06T01:23:29.061Z,3.40
2023-03-06T01:26:16.957Z,3.05
2023-03-06T01:29:04.843Z,3.22
2023-03-06T01:31:53.150Z,4.00
2023-03-06T01:34:40.780Z,2.47
2023-03-06T01:37:28.690Z,2.83
2023-03-06T01:40:16.959Z,2.33
2023-03-06T01:43:27.060Z,2.75
2023-03-06T01:46:32.950Z,3.03
2023-03-06T01:49:25.968Z,2.85
2023-03-06T01:52:17.466Z,2.88
2023-03-06T01:55:28.215Z,2.38
2023-03-06T01:58:19.203Z,2.50
2023-03-06T02:01:07.105Z,2.53
2023-03-06T02:03:55.705Z,2.60
2023-03-06T02:06:44.035Z,2.38
2023-03-06T02:09:34.410Z,2.50
2023-03-06T02:12:22.547Z,2.03
2023-03-06T02:15:12.612Z,2.20
2023-03-06T02:18:00.807Z,2.13
2023-03-06T02:20:54.713Z,2.78
2023-03-06T02:24:00.500Z,2.40
2023-03-06T02:26:48.704Z,2.38
2023-03-06T02:29:36.990Z,2.50
2023-03-06T02:32:24.711Z,2.15
2023-03-06T02:35:25.620Z,3.00
2023-03-06T02:38:17.946Z,3.28
2023-03-06T02:41:08.866Z,5.13
2023-03-06T02:43:56.546Z,2.88
2023-03-06T02:46:44.420Z,2.53
2023-03-06T02:49:32.092Z,2.30
2023-03-06T02:52:20.095Z,2.90
2023-03-06T02:55:08.294Z,2.45
2023-03-06T02:57:55.972Z,2.85
2023-03-06T03:00:44.548Z,2.42
2023-03-06T03:03:33.494Z,2.88
2023-03-06T03:06:21.425Z,2.63
2023-03-06T03:09:10.057Z,3.03
2023-03-06T03:11:57.699Z,3.50
2023-03-06T03:14:45.452Z,2.47
2023-03-06T03:17:37.303Z,2.28
2023-03-06T03:20:25.096Z,3.42
2023-03-06T03:23:12.694Z,2.92
2023-03-06T03:26:13.005Z,2.03
2023-03-06T03:29:05.362Z,3.35
2023-03-06T03:31:53.130Z,2.65
2023-03-06T03:34:40.913Z,2.75
2023-03-06T03:37:28.770Z,2.72
2023-03-06T03:40:17.163Z,2.65
2023-03-06T03:43:04.944Z,2.17
2023-03-06T03:46:02.316Z,2.28
2023-03-06T03:48:50.070Z,3.30
2023-03-06T03:51:38.002Z,3.35
2023-03-06T03:54:25.927Z,2.47
2023-03-06T04:00:38.510Z,2.17
2023-03-06T04:03:32.937Z,2.50
2023-03-06T04:06:23.932Z,2.47
2023-03-06T04:09:11.856Z,2.22
2023-03-06T04:11:59.838Z,1.98
2023-03-06T04:14:47.506Z,2.17
2023-03-06T04:17:50.719Z,1.90
2023-03-06T04:20:42.753Z,1.90
2023-03-06T04:23:31.217Z,1.67
2023-03-06T04:26:18.972Z,2.00
2023-03-06T04:29:28.068Z,1.73
2023-03-06T04:32:24.226Z,2.13
2023-03-06T04:35:15.581Z,2.05
2023-03-06T04:38:12.680Z,2.80
2023-03-06T04:41:31.228Z,1.98
2023-03-06T04:44:18.866Z,2.00
2023-03-06T04:47:06.986Z,2.30
2023-03-06T04:50:46.631Z,2.95
2023-03-06T04:54:07.631Z,2.00
2023-03-06T04:56:57.997Z,2.65
2023-03-06T04:59:45.758Z,2.90
2023-03-06T05:02:33.768Z,2.40
2023-03-06T05:05:21.536Z,3.10
2023-03-06T05:08:13.240Z,2.00
2023-03-06T05:11:04.958Z,2.92
2023-03-06T05:13:54.880Z,2.85
2023-03-06T05:16:45.459Z,3.03
2023-03-06T05:19:33.127Z,3.40
2023-03-06T05:22:20.911Z,2.58
2023-03-06T05:25:10.871Z,2.65
2023-03-06T05:27:58.754Z,5.35
2023-03-06T05:30:46.405Z,9.23
2023-03-06T05:33:35.411Z,5.97
2023-03-06T05:36:25.354Z,4.18
2023-03-06T05:39:13.412Z,2.88
2023-03-06T05:42:01.231Z,3.78
2023-03-06T05:44:48.967Z,2.78
2023-03-06T05:47:36.635Z,4.00
2023-03-06T05:50:26.677Z,3.10
2023-03-06T05:53:14.287Z,2.60
2023-03-06T05:56:06.397Z,2.40
2023-03-06T05:58:54.085Z,2.92
2023-03-06T06:01:41.839Z,2.53
2023-03-06T06:04:29.479Z,2.92
2023-03-06T06:07:17.686Z,1.83
2023-03-06T06:10:07.038Z,4.22
2023-03-06T06:12:54.714Z,2.35
2023-03-06T06:15:45.556Z,3.15
2023-03-06T06:18:33.295Z,2.78
2023-03-06T06:21:20.957Z,2.22
2023-03-06T06:24:11.435Z,3.22
2023-03-06T06:27:02.582Z,2.95
2023-03-06T06:32:40.346Z,2.13
2023-03-06T06:35:28.093Z,1.98
2023-03-06T06:38:15.946Z,2.65
2023-03-06T06:41:51.039Z,1.88
2023-03-06T06:44:35.497Z,1.73
2023-03-06T06:47:26.177Z,2.08
2023-03-06T06:50:14.497Z,2.08
2023-03-06T06:53:02.244Z,1.83
2023-03-06T06:55:58.136Z,2.47
2023-03-06T06:58:45.885Z,2.38
2023-03-06T07:01:33.554Z,2.15
2023-03-06T07:04:21.403Z,2.15
2023-03-06T07:07:08.992Z,1.80
2023-03-06T07:10:17.671Z,2.08
2023-03-06T07:13:08.842Z,2.50
2023-03-06T07:15:56.673Z,2.92
2023-03-06T07:18:44.831Z,2.70
2023-03-06T07:21:32.728Z,2.03
2023-03-06T07:24:20.360Z,1.98
2023-03-06T07:27:08.101Z,2.45
2023-03-06T07:29:58.294Z,2.90
2023-03-06T07:32:46.159Z,2.72
2023-03-06T07:35:34.261Z,2.30
2023-03-06T07:38:22.130Z,2.03
2023-03-06T07:41:52.601Z,1.85
2023-03-06T07:44:42.983Z,4.60
2023-03-06T07:47:30.689Z,4.10
2023-03-06T07:50:23.695Z,3.55
2023-03-06T07:53:11.648Z,4.13
2023-03-06T07:55:59.989Z,4.05
2023-03-06T07:58:48.147Z,3.28
2023-03-06T08:01:36.653Z,3.22
2023-03-06T08:04:24.268Z,2.30
2023-03-06T08:07:13.418Z,2.45
2023-03-06T08:10:01.297Z,2.58
2023-03-06T08:12:53.400Z,2.15
2023-03-06T08:15:41.079Z,2.90
2023-03-06T08:18:32.189Z,2.33
2023-03-06T08:21:23.992Z,1.80
2023-03-06T08:24:13.473Z,2.15
2023-03-06T08:27:01.258Z,2.22
2023-03-06T08:29:49.091Z,2.85
2023-03-06T08:32:37.327Z,2.83
2023-03-06T08:35:25.197Z,1.70
2023-03-06T08:38:12.957Z,2.10
2023-03-06T08:41:00.741Z,2.38
2023-03-06T08:43:49.363Z,1.83
2023-03-06T08:46:37.805Z,1.98
2023-03-06T08:49:25.754Z,2.00
2023-03-06T08:52:13.519Z,2.08
2023-03-06T08:55:03.761Z,1.70
2023-03-06T08:57:51.533Z,2.05
2023-03-06T09:00:40.497Z,1.92
2023-03-06T09:03:28.273Z,2.55
2023-03-06T09:06:16.536Z,2.10
2023-03-06T09:09:05.616Z,2.35
2023-03-06T09:11:53.847Z,2.53
2023-03-06T09:14:41.834Z,2.05
2023-03-06T09:17:30.168Z,2.90
2023-03-06T09:20:21.347Z,2.00
2023-03-06T09:23:10.228Z,2.92
2023-03-06T09:26:01.710Z,2.55
2023-03-06T09:28:50.526Z,2.60
2023-03-06T09:31:38.263Z,2.78
2023-03-06T09:34:29.458Z,2.67
2023-03-06T09:37:18.173Z,2.67
2023-03-06T09:40:08.949Z,2.83
2023-03-06T09:42:56.659Z,2.30
2023-03-06T09:45:44.821Z,2.70
2023-03-06T09:48:54.925Z,2.72
2023-03-06T09:52:02.141Z,2.00
2023-03-06T09:55:02.576Z,3.03
2023-03-06T09:57:51.227Z,2.45
2023-03-06T10:01:01.333Z,2.78
2023-03-06T10:04:18.264Z,3.67
2023-03-06T10:07:19.621Z,3.10
2023-03-06T10:10:16.937Z,3.03
2023-03-06T10:13:27.904Z,2.70
2023-03-06T10:16:32.891Z,2.47
2023-03-06T10:19:22.473Z,2.85
2023-03-06T10:22:18.854Z,2.33
2023-03-06T10:25:19.991Z,2.85
2023-03-06T10:28:18.508Z,3.08
2023-03-06T10:31:28.449Z,1.92
2023-03-06T10:34:23.091Z,2.65
2023-03-06T10:37:19.842Z,2.70
2023-03-06T10:40:19.489Z,2.63
2023-03-06T10:43:12.449Z,2.60
2023-03-06T10:46:03.435Z,2.67
2023-03-06T10:48:59.126Z,2.35
2023-03-06T10:52:00.109Z,2.95
2023-03-06T10:54:50.936Z,3.25
2023-03-06T10:57:40.082Z,2.38
2023-03-06T11:00:36.249Z,1.83
2023-03-06T11:03:24.836Z,3.45
2023-03-06T11:06:30.668Z,3.22
2023-03-06T11:09:26.083Z,2.47
2023-03-06T11:12:27.900Z,3.42
2023-03-06T11:15:41.446Z,2.95
2023-03-06T11:18:35.202Z,3.08
2023-03-06T11:21:34.973Z,2.97
2023-03-06T11:24:22.692Z,2.75
2023-03-06T11:27:38.364Z,2.38
2023-03-06T11:30:45.632Z,3.63
2023-03-06T11:33:46.603Z,3.08
2023-03-06T11:36:50.706Z,2.58
2023-03-06T11:39:48.275Z,3.35
2023-03-06T11:42:43.077Z,2.25
2023-03-06T11:45:42.652Z,3.20
2023-03-06T11:48:46.699Z,3.10
2023-03-06T11:51:41.421Z,2.60
2023-03-06T11:54:29.198Z,3.00
2023-03-06T11:57:30.948Z,2.88
2023-03-06T12:00:41.403Z,3.15
2023-03-06T12:03:38.023Z,3.22
2023-03-06T12:07:12.126Z,2.50
2023-03-06T12:10:18.108Z,2.90
2023-03-06T12:13:41.103Z,2.58
2023-03-06T12:16:58.896Z,3.13
2023-03-06T12:19:46.660Z,2.60
2023-03-06T12:22:58.032Z,2.88
2023-03-06T12:26:19.700Z,2.80
2023-03-06T12:29:44.437Z,2.65
2023-03-06T12:33:02.957Z,3.53
2023-03-06T12:35:59.486Z,2.67
2023-03-06T12:39:08.208Z,2.95
2023-03-06T12:42:02.498Z,2.63
2023-03-06T12:45:09.974Z,3.85
2023-03-06T12:47:58.410Z,3.28
2023-03-06T12:50:49.248Z,2.80
2023-03-06T12:53:44.516Z,2.58
2023-03-06T12:56:33.872Z,3.08
2023-03-06T12:59:48.734Z,3.42
2023-03-06T13:02:39.172Z,2.50
2023-03-06T13:05:34.806Z,3.30
2023-03-06T13:08:34.260Z,2.65
2023-03-06T13:11:39.741Z,3.13
2023-03-06T13:14:42.344Z,1.70
2023-03-06T13:17:41.882Z,3.10
2023-03-06T13:20:41.919Z,3.05
2023-03-06T13:23:29.677Z,2.40
2023-03-06T13:26:26.879Z,2.40
2023-03-06T13:29:36.045Z,3.42
2023-03-06T13:32:31.514Z,2.28
2023-03-06T13:35:34.370Z,2.30
2023-03-06T13:38:42.484Z,3.25
2023-03-06T13:41:32.865Z,2.30
2023-03-06T13:44:26.769Z,2.35
2023-03-06T13:47:26.317Z,2.90
2023-03-06T13:50:39.029Z,2.55
2023-03-06T13:53:45.173Z,2.75
2023-03-06T13:56:59.023Z,3.33
2023-03-06T14:00:12.408Z,2.83
2023-03-06T14:03:37.974Z,2.63
2023-03-06T14:06:34.743Z,2.60
2023-03-06T14:09:30.419Z,3.13
2023-03-06T14:15:24.644Z,2.47
2023-03-06T14:18:15.117Z,2.47
2023-03-06T14:21:12.090Z,3.20
2023-03-06T14:24:04.390Z,3.65
2023-03-06T14:26:52.434Z,2.63
2023-03-06T14:29:40.044Z,2.35
2023-03-06T14:32:27.870Z,2.75
2023-03-06T14:35:26.911Z,3.38
2023-03-06T14:38:16.509Z,2.63
2023-03-06T14:41:06.559Z,2.40
2023-03-06T14:44:18.342Z,2.85
2023-03-06T14:47:24.254Z,4.30
2023-03-06T14:50:24.434Z,6.63
2023-03-06T14:53:19.221Z,4.57
2023-03-06T14:56:07.873Z,4.55
2023-03-06T14:59:01.631Z,3.67
2023-03-06T15:01:52.895Z,4.90
2023-03-06T15:04:51.569Z,3.53
2023-03-06T15:07:43.185Z,3.60
2023-03-06T15:10:34.713Z,2.90
2023-03-06T15:13:28.161Z,2.30
2023-03-06T15:16:18.126Z,2.72
2023-03-06T15:22:39.117Z,3.13
2023-03-06T15:25:32.425Z,4.55
2023-03-06T15:28:38.018Z,5.25
2023-03-06T15:31:31.122Z,5.60
2023-03-06T15:34:23.921Z,4.97
2023-03-06T15:37:28.007Z,5.53
2023-03-06T15:40:23.937Z,4.47
2023-03-06T15:43:12.064Z,3.58
2023-03-06T15:46:01.208Z,4.53
2023-03-06T15:48:53.672Z,10.52
2023-03-06T15:51:43.862Z,22.15
2023-03-06T15:54:32.998Z,26.92
2023-03-06T15:57:25.097Z,50.65
2023-03-06T16:00:28.488Z,22.55
2023-03-06T16:03:18.266Z,10.32
2023-03-06T16:06:06.951Z,13.52
2023-03-06T16:08:54.622Z,16.42
2023-03-06T16:11:47.553Z,14.77
2023-03-06T16:14:38.307Z,11.32
2023-03-06T16:17:26.060Z,10.50
2023-03-06T16:20:22.344Z,41.83
2023-03-06T16:23:10.905Z,11.13
2023-03-06T16:25:58.680Z,9.88
2023-03-06T16:28:47.048Z,10.25
2023-03-06T16:31:36.418Z,16.27
2023-03-06T16:34:24.937Z,33.35
2023-03-06T16:37:14.358Z,20.10
2023-03-06T16:40:09.628Z,28.70
2023-03-06T16:42:57.265Z,13.98
2023-03-06T16:45:45.257Z,27.65
2023-03-06T16:48:41.205Z,8.05
2023-03-06T16:51:38.124Z,11.07
2023-03-06T16:54:26.437Z,7.72
2023-03-06T16:57:17.962Z,12.43
2023-03-06T17:00:06.842Z,8.27
2023-03-06T17:03:02.191Z,6.97
2023-03-06T17:05:49.930Z,5.93
2023-03-06T17:08:37.753Z,7.43
2023-03-06T17:11:25.640Z,11.55
2023-03-06T17:14:13.466Z,8.65
2023-03-06T17:17:04.199Z,7.15
2023-03-06T17:19:52.896Z,7.65
2023-03-06T17:22:44.551Z,6.75
2023-03-06T17:25:35.212Z,5.68
2023-03-06T17:28:26.877Z,6.22
2023-03-06T17:31:20.361Z,6.43
2023-03-06T17:34:08.210Z,9.30
2023-03-06T17:36:56.901Z,10.45
2023-03-06T17:39:45.736Z,8.25
2023-03-06T17:42:36.214Z,9.70
2023-03-06T17:45:25.162Z,13.15
2023-03-06T17:48:25.804Z,21.73
2023-03-06T17:51:14.745Z,17.30
2023-03-06T17:54:03.579Z,26.33
2023-03-06T17:56:54.799Z,12.30
2023-03-06T17:59:48.802Z,15.18
2023-03-06T18:02:36.700Z,7.07
2023-03-06T18:05:24.701Z,5.75
2023-03-06T18:08:13.685Z,5.25
2023-03-06T18:11:06.719Z,5.93
2023-03-06T18:13:54.566Z,14.98
2023-03-06T18:17:01.191Z,13.73
2023-03-06T18:19:48.912Z,10.82
2023-03-06T18:22:39.648Z,10.43
2023-03-06T18:25:27.616Z,12.48
2023-03-06T18:28:18.543Z,14.93
2023-03-06T18:34:00.442Z,22.02
2023-03-06T18:36:51.010Z,21.58
2023-03-06T18:39:38.792Z,18.92
2023-03-06T18:42:26.783Z,16.55
2023-03-06T18:45:14.584Z,14.25
2023-03-06T18:48:05.119Z,14.10
2023-03-06T18:50:52.960Z,12.98
2023-03-06T18:53:41.554Z,18.02
2023-03-06T18:56:29.376Z,20.00
2023-03-06T18:59:18.904Z,22.33
2023-03-06T19:02:07.363Z,20.27
2023-03-06T19:04:55.181Z,15.82
2023-03-06T19:07:43.073Z,16.60
2023-03-06T19:10:31.488Z,22.00
2023-03-06T19:13:19.598Z,23.48
2023-03-06T19:16:07.894Z,17.83
2023-03-06T19:18:57.515Z,13.88
2023-03-06T19:21:45.733Z,18.98
2023-03-06T19:24:33.758Z,18.83
2023-03-06T19:27:21.688Z,23.42
2023-03-06T19:30:10.101Z,16.80
2023-03-06T19:32:57.989Z,16.65
2023-03-06T19:35:46.015Z,16.35
2023-03-06T19:38:36.431Z,18.38
2023-03-06T19:41:25.236Z,22.13
2023-03-06T19:44:13.216Z,22.42
2023-03-06T19:47:01.041Z,24.85
2023-03-06T19:49:48.982Z,22.65
2023-03-06T19:52:38.572Z,22.00
2023-03-06T19:55:28.935Z,15.68
2023-03-06T19:58:16.729Z,23.27
2023-03-06T20:01:13.802Z,22.08
2023-03-06T20:04:02.273Z,27.40
2023-03-06T20:06:53.555Z,23.80
2023-03-06T20:09:44.368Z,19.60
2023-03-06T20:12:33.498Z,18.15
2023-03-06T20:15:41.544Z,15.40
2023-03-06T20:19:27.053Z,14.90
2023-03-06T20:22:14.800Z,13.82
2023-03-06T20:25:04.567Z,15.50
2023-03-06T20:27:54.867Z,14.93
2023-03-06T20:30:42.500Z,12.07
2023-03-06T20:33:30.251Z,11.23
2023-03-06T20:36:23.703Z,12.38
2023-03-06T20:39:16.963Z,13.05
2023-03-06T20:42:05.240Z,15.05
2023-03-06T20:44:53.007Z,12.13
2023-03-06T20:47:47.526Z,11.10
2023-03-06T20:50:35.163Z,9.55
2023-03-06T20:53:22.735Z,12.07
2023-03-06T20:56:15.234Z,15.38
2023-03-06T20:59:04.156Z,14.75
2023-03-06T21:01:51.876Z,12.35
2023-03-06T21:04:41.253Z,10.43
2023-03-06T21:07:28.952Z,10.00
2023-03-06T21:10:16.611Z,10.02
2023-03-06T21:13:04.395Z,12.10
2023-03-06T21:15:52.164Z,10.15
2023-03-06T21:18:40.295Z,10.73
2023-03-06T21:21:31.288Z,11.15
2023-03-06T21:24:21.230Z,10.50
2023-03-06T21:27:09.140Z,10.88
2023-03-06T21:29:57.306Z,13.50
2023-03-06T21:32:45.050Z,15.05
2023-03-06T21:35:36.849Z,14.38
2023-03-06T21:38:24.517Z,15.10
2023-03-06T21:41:18.435Z,12.73
2023-03-06T21:44:06.883Z,13.77
2023-03-06T21:46:54.658Z,12.20
2023-03-06T21:49:42.296Z,10.60
2023-03-06T21:52:30.136Z,8.45
2023-03-06T21:55:18.178Z,10.82
2023-03-06T21:58:05.933Z,9.20
2023-03-06T22:00:53.688Z,8.43
2023-03-06T22:03:41.599Z,10.20
2023-03-06T22:06:30.893Z,7.30
2023-03-06T22:09:20.164Z,6.93
2023-03-06T22:12:08.025Z,7.68
2023-03-06T22:14:56.536Z,6.60
2023-03-06T22:17:44.153Z,8.75
2023-03-06T22:20:31.918Z,8.43
2023-03-06T22:23:19.597Z,8.23
2023-03-06T22:26:10.689Z,12.15
2023-03-06T22:28:58.256Z,13.65
2023-03-06T22:31:45.967Z,13.00
2023-03-06T22:34:33.691Z,13.88
2023-03-06T22:37:21.423Z,14.95
2023-03-06T22:40:09.793Z,14.80
2023-03-06T22:42:57.553Z,15.88
2023-03-06T22:45:45.150Z,14.85
2023-03-06T22:48:33.435Z,13.65
2023-03-06T22:51:21.312Z,13.60
2023-03-06T22:54:09.972Z,14.18
2023-03-06T22:56:57.569Z,13.40
2023-03-06T22:59:45.374Z,12.68
2023-03-06T23:02:34.800Z,13.90
2023-03-06T23:05:22.541Z,14.13
2023-03-06T23:08:10.361Z,15.02
2023-03-06T23:10:58.015Z,15.32
2023-03-06T23:14:06.011Z,15.93
2023-03-06T23:17:12.259Z,14.52
2023-03-06T23:20:18.694Z,14.43
2023-03-06T23:23:25.793Z,17.58
2023-03-06T23:26:15.213Z,16.27
2023-03-06T23:29:04.520Z,15.40
2023-03-06T23:31:52.101Z,15.82
2023-03-06T23:34:40.037Z,16.67
2023-03-06T23:37:27.909Z,17.55
2023-03-06T23:40:16.560Z,17.30
2023-03-06T23:43:09.892Z,17.92
2023-03-06T23:45:58.106Z,15.30
2023-03-06T23:48:46.437Z,17.85
2023-03-06T23:51:34.170Z,17.60
2023-03-06T23:54:21.861Z,17.75
2023-03-06T23:57:09.866Z,14.15
2023-03-06T23:59:57.716Z,13.02
